sensor_id;sensor_type;location;lat;lon;timestamp;temperature;humidity
26212;DHT22;13951;49.516;6.094;2024-01-10T00:01:56;-3.10;99.90
26212;DHT22;13951;49.516;6.094;2024-01-10T00:04:31;-3.20;99.90
26212;DHT22;13951;49.516;6.094;2024-01-10T00:07:05;-3.20;99.90
26212;DHT22;13951;49.516;6.094;2024-01-10T00:09:38;-3.20;99.90
26212;DHT22;13951;49.516;6.094;2024-01-10T00:12:11;-3.20;99.90
26212;DHT22;13951;49.516;6.094;2024-01-10T00:14:44;-3.20;99.90
26212;DHT22;13951;49.516;6.094;2024-01-10T00:17:17;-3.20;99.90
26212;DHT22;13951;49.516;6.094;2024-01-10T00:19:50;-3.20;99.90
26212;DHT22;13951;49.516;6.094;2024-01-10T00:22:24;-3.20;99.90
26212;DHT22;13951;49.516;6.094;2024-01-10T00:24:57;-3.20;99.90
26212;DHT22;13951;49.516;6.094;2024-01-10T00:27:31;-3.20;99.90
26212;DHT22;13951;49.516;6.094;2024-01-10T00:30:05;-3.30;99.90
26212;DHT22;13951;49.516;6.094;2024-01-10T00:32:38;-3.30;99.90
26212;DHT22;13951;49.516;6.094;2024-01-10T00:35:11;-3.30;99.90
26212;DHT22;13951;49.516;6.094;2024-01-10T00:37:45;-3.30;99.90
26212;DHT22;13951;49.516;6.094;2024-01-10T00:40:18;-3.30;99.90
26212;DHT22;13951;49.516;6.094;2024-01-10T00:42:51;-3.30;99.90
26212;DHT22;13951;49.516;6.094;2024-01-10T00:45:24;-3.30;99.90
26212;DHT22;13951;49.516;6.094;2024-01-10T00:47:57;-3.30;99.90
26212;DHT22;13951;49.516;6.094;2024-01-10T00:50:31;-3.30;99.90
26212;DHT22;13951;49.516;6.094;2024-01-10T00:53:04;-3.30;99.90
26212;DHT22;13951;49.516;6.094;2024-01-10T00:55:37;-3.40;99.90
26212;DHT22;13951;49.516;6.094;2024-01-10T00:58:10;-3.30;99.90
26212;DHT22;13951;49.516;6.094;2024-01-10T01:00:44;-3.40;99.90
26212;DHT22;13951;49.516;6.094;2024-01-10T01:03:17;-3.40;99.90
26212;DHT22;13951;49.516;6.094;2024-01-10T01:05:51;-3.40;99.90
26212;DHT22;13951;49.516;6.094;2024-01-10T01:08:24;-3.30;99.90
26212;DHT22;13951;49.516;6.094;2024-01-10T01:10:58;-3.30;99.90
26212;DHT22;13951;49.516;6.094;2024-01-10T01:13:31;-3.40;99.90
26212;DHT22;13951;49.516;6.094;2024-01-10T01:16:20;-3.40;99.90
26212;DHT22;13951;49.516;6.094;2024-01-10T01:18:54;-3.40;99.90
26212;DHT22;13951;49.516;6.094;2024-01-10T01:21:27;-3.50;99.90
26212;DHT22;13951;49.516;6.094;2024-01-10T01:24:00;-3.50;99.90
26212;DHT22;13951;49.516;6.094;2024-01-10T01:26:33;-3.50;99.90
26212;DHT22;13951;49.516;6.094;2024-01-10T01:29:06;-3.50;99.90
26212;DHT22;13951;49.516;6.094;2024-01-10T01:31:41;-3.50;99.90
26212;DHT22;13951;49.516;6.094;2024-01-10T01:34:15;-3.50;99.90
26212;DHT22;13951;49.516;6.094;2024-01-10T01:36:48;-3.50;99.90
26212;DHT22;13951;49.516;6.094;2024-01-10T01:39:21;-3.50;99.90
26212;DHT22;13951;49.516;6.094;2024-01-10T01:41:55;-3.50;99.90
26212;DHT22;13951;49.516;6.094;2024-01-10T01:44:28;-3.40;99.90
26212;DHT22;13951;49.516;6.094;2024-01-10T01:47:01;-3.40;99.90
26212;DHT22;13951;49.516;6.094;2024-01-10T01:49:36;-3.40;99.90
26212;DHT22;13951;49.516;6.094;2024-01-10T01:52:10;-3.30;99.90
26212;DHT22;13951;49.516;6.094;2024-01-10T01:54:43;-3.30;99.90
26212;DHT22;13951;49.516;6.094;2024-01-10T01:57:16;-3.30;99.90
26212;DHT22;13951;49.516;6.094;2024-01-10T01:59:50;-3.40;99.90
26212;DHT22;13951;49.516;6.094;2024-01-10T02:02:24;-3.40;99.90
26212;DHT22;13951;49.516;6.094;2024-01-10T02:04:58;-3.50;99.90
26212;DHT22;13951;49.516;6.094;2024-01-10T02:07:33;-3.50;99.90
26212;DHT22;13951;49.516;6.094;2024-01-10T02:10:07;-3.50;99.90
26212;DHT22;13951;49.516;6.094;2024-01-10T02:12:40;-3.50;99.90
26212;DHT22;13951;49.516;6.094;2024-01-10T02:15:14;-3.60;99.90
26212;DHT22;13951;49.516;6.094;2024-01-10T02:17:48;-3.50;99.90
26212;DHT22;13951;49.516;6.094;2024-01-10T02:20:21;-3.60;99.90
26212;DHT22;13951;49.516;6.094;2024-01-10T02:22:55;-3.60;99.90
26212;DHT22;13951;49.516;6.094;2024-01-10T02:25:28;-3.60;99.90
26212;DHT22;13951;49.516;6.094;2024-01-10T02:28:01;-3.60;99.90
26212;DHT22;13951;49.516;6.094;2024-01-10T02:30:35;-3.60;99.90
26212;DHT22;13951;49.516;6.094;2024-01-10T02:33:08;-3.70;99.90
26212;DHT22;13951;49.516;6.094;2024-01-10T02:35:41;-3.70;99.90
26212;DHT22;13951;49.516;6.094;2024-01-10T02:38:15;-3.60;99.90
26212;DHT22;13951;49.516;6.094;2024-01-10T02:40:48;-3.70;99.90
26212;DHT22;13951;49.516;6.094;2024-01-10T02:43:21;-3.60;99.90
26212;DHT22;13951;49.516;6.094;2024-01-10T02:45:54;-3.60;99.90
26212;DHT22;13951;49.516;6.094;2024-01-10T02:48:27;-3.60;99.90
26212;DHT22;13951;49.516;6.094;2024-01-10T02:51:01;-3.60;99.90
26212;DHT22;13951;49.516;6.094;2024-01-10T02:53:34;-3.60;99.90
26212;DHT22;13951;49.516;6.094;2024-01-10T02:56:07;-3.60;99.90
26212;DHT22;13951;49.516;6.094;2024-01-10T02:58:40;-3.60;99.90
26212;DHT22;13951;49.516;6.094;2024-01-10T03:01:14;-3.60;99.90
26212;DHT22;13951;49.516;6.094;2024-01-10T03:03:48;-3.60;99.90
26212;DHT22;13951;49.516;6.094;2024-01-10T03:06:22;-3.60;99.90
26212;DHT22;13951;49.516;6.094;2024-01-10T03:08:55;-3.60;99.90
26212;DHT22;13951;49.516;6.094;2024-01-10T03:11:29;-3.70;99.90
26212;DHT22;13951;49.516;6.094;2024-01-10T03:14:11;-3.70;99.90
26212;DHT22;13951;49.516;6.094;2024-01-10T03:16:44;-3.60;99.90
26212;DHT22;13951;49.516;6.094;2024-01-10T03:19:19;-3.70;99.90
26212;DHT22;13951;49.516;6.094;2024-01-10T03:21:52;-3.70;99.90
26212;DHT22;13951;49.516;6.094;2024-01-10T03:24:25;-3.60;99.90
26212;DHT22;13951;49.516;6.094;2024-01-10T03:27:00;-3.70;99.90
26212;DHT22;13951;49.516;6.094;2024-01-10T03:29:33;-3.60;99.90
26212;DHT22;13951;49.516;6.094;2024-01-10T03:32:08;-3.60;99.90
26212;DHT22;13951;49.516;6.094;2024-01-10T03:34:41;-3.60;99.90
26212;DHT22;13951;49.516;6.094;2024-01-10T03:37:16;-3.60;99.90
26212;DHT22;13951;49.516;6.094;2024-01-10T03:39:49;-3.60;99.90
26212;DHT22;13951;49.516;6.094;2024-01-10T03:42:22;-3.60;99.90
26212;DHT22;13951;49.516;6.094;2024-01-10T03:44:55;-3.60;99.90
26212;DHT22;13951;49.516;6.094;2024-01-10T03:47:28;-3.60;99.90
26212;DHT22;13951;49.516;6.094;2024-01-10T03:50:01;-3.60;99.90
26212;DHT22;13951;49.516;6.094;2024-01-10T03:52:35;-3.60;99.90
26212;DHT22;13951;49.516;6.094;2024-01-10T03:55:08;-3.60;99.90
26212;DHT22;13951;49.516;6.094;2024-01-10T03:57:42;-3.60;99.90
26212;DHT22;13951;49.516;6.094;2024-01-10T04:00:15;-3.60;99.90
26212;DHT22;13951;49.516;6.094;2024-01-10T04:02:49;-3.60;99.90
26212;DHT22;13951;49.516;6.094;2024-01-10T04:05:25;-3.60;99.90
26212;DHT22;13951;49.516;6.094;2024-01-10T04:07:58;-3.60;99.90
26212;DHT22;13951;49.516;6.094;2024-01-10T04:10:31;-3.60;99.90
26212;DHT22;13951;49.516;6.094;2024-01-10T04:13:04;-3.60;99.90
26212;DHT22;13951;49.516;6.094;2024-01-10T04:15:38;-3.60;99.90
26212;DHT22;13951;49.516;6.094;2024-01-10T04:18:12;-3.60;99.90
26212;DHT22;13951;49.516;6.094;2024-01-10T04:20:49;-3.60;99.90
26212;DHT22;13951;49.516;6.094;2024-01-10T04:23:22;-3.60;99.90
26212;DHT22;13951;49.516;6.094;2024-01-10T04:25:56;-3.60;99.90
26212;DHT22;13951;49.516;6.094;2024-01-10T04:28:30;-3.60;99.90
26212;DHT22;13951;49.516;6.094;2024-01-10T04:31:04;-3.60;99.90
26212;DHT22;13951;49.516;6.094;2024-01-10T04:33:37;-3.60;99.90
26212;DHT22;13951;49.516;6.094;2024-01-10T04:36:10;-3.70;99.90
26212;DHT22;13951;49.516;6.094;2024-01-10T04:38:45;-3.70;99.90
26212;DHT22;13951;49.516;6.094;2024-01-10T04:41:19;-3.70;99.90
26212;DHT22;13951;49.516;6.094;2024-01-10T04:43:52;-3.70;99.90
26212;DHT22;13951;49.516;6.094;2024-01-10T04:46:28;-3.70;99.90
26212;DHT22;13951;49.516;6.094;2024-01-10T04:49:01;-3.70;99.90
26212;DHT22;13951;49.516;6.094;2024-01-10T04:51:34;-3.70;99.90
26212;DHT22;13951;49.516;6.094;2024-01-10T04:54:08;-3.70;99.90
26212;DHT22;13951;49.516;6.094;2024-01-10T04:56:41;-3.70;99.90
26212;DHT22;13951;49.516;6.094;2024-01-10T04:59:14;-3.70;99.90
26212;DHT22;13951;49.516;6.094;2024-01-10T05:01:48;-3.70;99.90
26212;DHT22;13951;49.516;6.094;2024-01-10T05:04:21;-3.70;99.90
26212;DHT22;13951;49.516;6.094;2024-01-10T05:06:54;-3.70;99.90
26212;DHT22;13951;49.516;6.094;2024-01-10T05:09:28;-3.70;99.90
26212;DHT22;13951;49.516;6.094;2024-01-10T05:12:02;-3.80;99.90
26212;DHT22;13951;49.516;6.094;2024-01-10T05:14:35;-3.70;99.90
26212;DHT22;13951;49.516;6.094;2024-01-10T05:17:08;-3.70;99.90
26212;DHT22;13951;49.516;6.094;2024-01-10T05:19:42;-3.70;99.90
26212;DHT22;13951;49.516;6.094;2024-01-10T05:22:15;-3.70;99.90
26212;DHT22;13951;49.516;6.094;2024-01-10T05:24:49;-3.70;99.90
26212;DHT22;13951;49.516;6.094;2024-01-10T05:27:23;-3.70;99.90
26212;DHT22;13951;49.516;6.094;2024-01-10T05:29:57;-3.70;99.90
26212;DHT22;13951;49.516;6.094;2024-01-10T05:32:32;-3.60;99.90
26212;DHT22;13951;49.516;6.094;2024-01-10T05:35:06;-3.50;99.90
26212;DHT22;13951;49.516;6.094;2024-01-10T05:37:39;-3.60;99.90
26212;DHT22;13951;49.516;6.094;2024-01-10T05:40:12;-3.60;99.90
26212;DHT22;13951;49.516;6.094;2024-01-10T05:42:46;-3.60;99.90
26212;DHT22;13951;49.516;6.094;2024-01-10T05:45:19;-3.70;99.90
26212;DHT22;13951;49.516;6.094;2024-01-10T05:47:52;-3.70;99.90
26212;DHT22;13951;49.516;6.094;2024-01-10T05:50:26;-3.70;99.90
26212;DHT22;13951;49.516;6.094;2024-01-10T05:52:59;-3.70;99.90
26212;DHT22;13951;49.516;6.094;2024-01-10T05:55:33;-3.70;99.90
26212;DHT22;13951;49.516;6.094;2024-01-10T05:58:07;-3.70;99.90
26212;DHT22;13951;49.516;6.094;2024-01-10T06:00:42;-3.70;99.90
26212;DHT22;13951;49.516;6.094;2024-01-10T06:03:15;-3.70;99.90
26212;DHT22;13951;49.516;6.094;2024-01-10T06:05:48;-3.70;99.90
26212;DHT22;13951;49.516;6.094;2024-01-10T06:08:22;-3.60;99.90
26212;DHT22;13951;49.516;6.094;2024-01-10T06:10:58;-3.60;99.90
26212;DHT22;13951;49.516;6.094;2024-01-10T06:13:32;-3.60;99.90
26212;DHT22;13951;49.516;6.094;2024-01-10T06:16:21;-3.70;99.90
26212;DHT22;13951;49.516;6.094;2024-01-10T06:18:54;-3.70;99.90
26212;DHT22;13951;49.516;6.094;2024-01-10T06:21:27;-3.70;99.90
26212;DHT22;13951;49.516;6.094;2024-01-10T06:24:01;-3.70;99.90
26212;DHT22;13951;49.516;6.094;2024-01-10T06:26:34;-3.70;99.90
26212;DHT22;13951;49.516;6.094;2024-01-10T06:29:07;-3.70;99.90
26212;DHT22;13951;49.516;6.094;2024-01-10T06:31:40;-3.70;99.90
26212;DHT22;13951;49.516;6.094;2024-01-10T06:34:13;-3.60;99.90
26212;DHT22;13951;49.516;6.094;2024-01-10T06:36:47;-3.60;99.90
26212;DHT22;13951;49.516;6.094;2024-01-10T06:39:20;-3.70;99.90
26212;DHT22;13951;49.516;6.094;2024-01-10T06:41:54;-3.60;99.90
26212;DHT22;13951;49.516;6.094;2024-01-10T06:44:27;-3.60;99.90
26212;DHT22;13951;49.516;6.094;2024-01-10T06:47:01;-3.60;99.90
26212;DHT22;13951;49.516;6.094;2024-01-10T06:49:36;-3.60;99.90
26212;DHT22;13951;49.516;6.094;2024-01-10T06:52:09;-3.60;99.90
26212;DHT22;13951;49.516;6.094;2024-01-10T06:54:42;-3.60;99.90
26212;DHT22;13951;49.516;6.094;2024-01-10T06:57:16;-3.60;99.90
26212;DHT22;13951;49.516;6.094;2024-01-10T06:59:49;-3.60;99.90
26212;DHT22;13951;49.516;6.094;2024-01-10T07:02:23;-3.50;99.90
26212;DHT22;13951;49.516;6.094;2024-01-10T07:04:56;-3.50;99.90
26212;DHT22;13951;49.516;6.094;2024-01-10T07:07:29;-3.50;99.90
26212;DHT22;13951;49.516;6.094;2024-01-10T07:10:02;-3.50;99.90
26212;DHT22;13951;49.516;6.094;2024-01-10T07:12:41;-3.50;99.90
26212;DHT22;13951;49.516;6.094;2024-01-10T07:15:14;-3.50;99.90
26212;DHT22;13951;49.516;6.094;2024-01-10T07:17:48;-3.40;99.90
26212;DHT22;13951;49.516;6.094;2024-01-10T07:20:21;-3.40;99.90
26212;DHT22;13951;49.516;6.094;2024-01-10T07:22:57;-3.50;99.90
26212;DHT22;13951;49.516;6.094;2024-01-10T07:25:30;-3.50;99.90
26212;DHT22;13951;49.516;6.094;2024-01-10T07:28:04;-3.40;99.90
26212;DHT22;13951;49.516;6.094;2024-01-10T07:30:37;-3.60;99.90
26212;DHT22;13951;49.516;6.094;2024-01-10T07:33:11;-3.60;99.90
26212;DHT22;13951;49.516;6.094;2024-01-10T07:35:44;-3.60;99.90
26212;DHT22;13951;49.516;6.094;2024-01-10T07:38:17;-3.50;99.90
26212;DHT22;13951;49.516;6.094;2024-01-10T07:40:50;-3.60;99.90
26212;DHT22;13951;49.516;6.094;2024-01-10T07:43:24;-3.50;99.90
26212;DHT22;13951;49.516;6.094;2024-01-10T07:45:57;-3.60;99.90
26212;DHT22;13951;49.516;6.094;2024-01-10T07:48:30;-3.60;99.90
26212;DHT22;13951;49.516;6.094;2024-01-10T07:51:04;-3.50;99.90
26212;DHT22;13951;49.516;6.094;2024-01-10T07:53:38;-3.50;99.90
26212;DHT22;13951;49.516;6.094;2024-01-10T07:56:11;-3.50;99.90
26212;DHT22;13951;49.516;6.094;2024-01-10T07:58:45;-3.50;99.90
26212;DHT22;13951;49.516;6.094;2024-01-10T08:01:19;-3.50;99.90
26212;DHT22;13951;49.516;6.094;2024-01-10T08:03:52;-3.50;99.90
26212;DHT22;13951;49.516;6.094;2024-01-10T08:06:25;-3.40;99.90
26212;DHT22;13951;49.516;6.094;2024-01-10T08:09:05;-3.40;99.90
26212;DHT22;13951;49.516;6.094;2024-01-10T08:11:38;-3.30;99.90
26212;DHT22;13951;49.516;6.094;2024-01-10T08:14:11;-3.30;99.90
26212;DHT22;13951;49.516;6.094;2024-01-10T08:16:45;-3.40;99.90
26212;DHT22;13951;49.516;6.094;2024-01-10T08:19:21;-3.30;99.90
26212;DHT22;13951;49.516;6.094;2024-01-10T08:21:54;-3.30;99.90
26212;DHT22;13951;49.516;6.094;2024-01-10T08:24:27;-3.30;99.90
26212;DHT22;13951;49.516;6.094;2024-01-10T08:27:01;-3.20;99.90
26212;DHT22;13951;49.516;6.094;2024-01-10T08:29:34;-3.30;99.90
26212;DHT22;13951;49.516;6.094;2024-01-10T08:32:07;-3.30;99.90
26212;DHT22;13951;49.516;6.094;2024-01-10T08:34:40;-3.20;99.90
26212;DHT22;13951;49.516;6.094;2024-01-10T08:37:13;-3.10;99.90
26212;DHT22;13951;49.516;6.094;2024-01-10T08:39:47;-3.10;99.90
26212;DHT22;13951;49.516;6.094;2024-01-10T08:42:20;-3.10;99.90
26212;DHT22;13951;49.516;6.094;2024-01-10T08:44:55;-3.10;99.90
26212;DHT22;13951;49.516;6.094;2024-01-10T08:47:29;-2.80;99.90
26212;DHT22;13951;49.516;6.094;2024-01-10T08:50:06;-3.00;99.90
26212;DHT22;13951;49.516;6.094;2024-01-10T08:52:42;-3.00;99.90
26212;DHT22;13951;49.516;6.094;2024-01-10T08:55:15;-2.80;99.90
26212;DHT22;13951;49.516;6.094;2024-01-10T08:57:48;-2.80;99.90
26212;DHT22;13951;49.516;6.094;2024-01-10T09:00:22;-2.60;99.90
26212;DHT22;13951;49.516;6.094;2024-01-10T09:02:55;-2.80;99.90
26212;DHT22;13951;49.516;6.094;2024-01-10T09:05:28;-2.60;99.90
26212;DHT22;13951;49.516;6.094;2024-01-10T09:08:02;-2.70;99.90
26212;DHT22;13951;49.516;6.094;2024-01-10T09:10:36;-2.70;99.90
26212;DHT22;13951;49.516;6.094;2024-01-10T09:13:11;-2.60;99.90
26212;DHT22;13951;49.516;6.094;2024-01-10T09:15:44;-2.40;99.90
26212;DHT22;13951;49.516;6.094;2024-01-10T09:18:18;-2.40;99.90
26212;DHT22;13951;49.516;6.094;2024-01-10T09:20:51;-2.40;99.90
26212;DHT22;13951;49.516;6.094;2024-01-10T09:23:26;-2.40;99.90
26212;DHT22;13951;49.516;6.094;2024-01-10T09:26:01;-2.40;99.90
26212;DHT22;13951;49.516;6.094;2024-01-10T09:28:34;-2.40;99.90
26212;DHT22;13951;49.516;6.094;2024-01-10T09:31:07;-2.30;99.90
26212;DHT22;13951;49.516;6.094;2024-01-10T09:33:41;-2.40;99.90
26212;DHT22;13951;49.516;6.094;2024-01-10T09:36:14;-2.30;99.90
26212;DHT22;13951;49.516;6.094;2024-01-10T09:38:48;-2.30;99.90
26212;DHT22;13951;49.516;6.094;2024-01-10T09:41:21;-2.30;99.90
26212;DHT22;13951;49.516;6.094;2024-01-10T09:43:56;-2.20;99.90
26212;DHT22;13951;49.516;6.094;2024-01-10T09:46:29;-2.30;99.90
26212;DHT22;13951;49.516;6.094;2024-01-10T09:49:03;-2.40;99.90
26212;DHT22;13951;49.516;6.094;2024-01-10T09:51:37;-2.40;99.90
26212;DHT22;13951;49.516;6.094;2024-01-10T09:54:10;-2.30;99.90
26212;DHT22;13951;49.516;6.094;2024-01-10T09:56:45;-2.30;99.90
26212;DHT22;13951;49.516;6.094;2024-01-10T09:59:18;-2.30;99.90
26212;DHT22;13951;49.516;6.094;2024-01-10T10:01:52;-2.30;99.90
26212;DHT22;13951;49.516;6.094;2024-01-10T10:04:27;-2.40;99.90
26212;DHT22;13951;49.516;6.094;2024-01-10T10:07:02;-2.40;99.90
26212;DHT22;13951;49.516;6.094;2024-01-10T10:09:35;-2.30;99.90
26212;DHT22;13951;49.516;6.094;2024-01-10T10:12:08;-2.30;99.90
26212;DHT22;13951;49.516;6.094;2024-01-10T10:14:42;-2.30;99.90
26212;DHT22;13951;49.516;6.094;2024-01-10T10:17:16;-2.20;99.90
26212;DHT22;13951;49.516;6.094;2024-01-10T10:19:50;-2.20;99.90
26212;DHT22;13951;49.516;6.094;2024-01-10T10:22:23;-2.10;99.90
26212;DHT22;13951;49.516;6.094;2024-01-10T10:24:57;-2.20;99.90
26212;DHT22;13951;49.516;6.094;2024-01-10T10:27:30;-2.10;99.90
26212;DHT22;13951;49.516;6.094;2024-01-10T10:30:04;-2.00;99.90
26212;DHT22;13951;49.516;6.094;2024-01-10T10:32:37;-2.00;99.90
26212;DHT22;13951;49.516;6.094;2024-01-10T10:35:11;-2.00;99.90
26212;DHT22;13951;49.516;6.094;2024-01-10T10:38:01;-2.00;99.90
26212;DHT22;13951;49.516;6.094;2024-01-10T10:40:35;-2.00;99.90
26212;DHT22;13951;49.516;6.094;2024-01-10T10:43:12;-1.90;99.90
26212;DHT22;13951;49.516;6.094;2024-01-10T10:45:48;-1.90;99.90
26212;DHT22;13951;49.516;6.094;2024-01-10T10:48:22;-1.90;99.90
26212;DHT22;13951;49.516;6.094;2024-01-10T10:51:05;-1.90;99.90
26212;DHT22;13951;49.516;6.094;2024-01-10T10:53:42;-1.80;99.90
26212;DHT22;13951;49.516;6.094;2024-01-10T10:56:19;-1.60;99.90
26212;DHT22;13951;49.516;6.094;2024-01-10T10:58:53;-1.70;99.90
26212;DHT22;13951;49.516;6.094;2024-01-10T11:01:27;-1.70;99.90
26212;DHT22;13951;49.516;6.094;2024-01-10T11:04:01;-1.60;99.90
26212;DHT22;13951;49.516;6.094;2024-01-10T11:06:35;-1.60;99.90
26212;DHT22;13951;49.516;6.094;2024-01-10T11:09:10;-1.70;99.90
26212;DHT22;13951;49.516;6.094;2024-01-10T11:11:54;-1.60;99.90
26212;DHT22;13951;49.516;6.094;2024-01-10T11:18:02;-1.50;99.90
26212;DHT22;13951;49.516;6.094;2024-01-10T11:23:44;-1.40;99.90
26212;DHT22;13951;49.516;6.094;2024-01-10T11:26:19;-1.40;99.90
26212;DHT22;13951;49.516;6.094;2024-01-10T11:28:53;-1.30;99.90
26212;DHT22;13951;49.516;6.094;2024-01-10T11:31:28;-1.30;99.90
26212;DHT22;13951;49.516;6.094;2024-01-10T11:34:04;-1.30;99.90
26212;DHT22;13951;49.516;6.094;2024-01-10T11:36:38;-1.30;99.90
26212;DHT22;13951;49.516;6.094;2024-01-10T11:39:12;-1.20;99.90
26212;DHT22;13951;49.516;6.094;2024-01-10T11:41:47;-1.20;99.90
26212;DHT22;13951;49.516;6.094;2024-01-10T11:44:26;-1.10;99.90
26212;DHT22;13951;49.516;6.094;2024-01-10T11:46:59;-1.10;99.90
26212;DHT22;13951;49.516;6.094;2024-01-10T11:49:33;-1.00;99.90
26212;DHT22;13951;49.516;6.094;2024-01-10T11:52:06;-1.00;99.90
26212;DHT22;13951;49.516;6.094;2024-01-10T11:57:25;-1.00;99.90
26212;DHT22;13951;49.516;6.094;2024-01-10T12:00:06;-0.90;99.90
26212;DHT22;13951;49.516;6.094;2024-01-10T12:02:42;-0.90;99.90
26212;DHT22;13951;49.516;6.094;2024-01-10T12:05:17;-0.90;99.90
26212;DHT22;13951;49.516;6.094;2024-01-10T12:07:51;-0.90;99.90
26212;DHT22;13951;49.516;6.094;2024-01-10T12:10:26;-0.90;99.90
26212;DHT22;13951;49.516;6.094;2024-01-10T12:13:00;-1.00;99.90
26212;DHT22;13951;49.516;6.094;2024-01-10T12:15:33;-1.00;99.90
26212;DHT22;13951;49.516;6.094;2024-01-10T12:18:07;-0.90;99.90
26212;DHT22;13951;49.516;6.094;2024-01-10T12:20:40;-0.90;99.90
26212;DHT22;13951;49.516;6.094;2024-01-10T12:23:16;-0.80;99.90
26212;DHT22;13951;49.516;6.094;2024-01-10T12:25:50;-0.80;99.90
26212;DHT22;13951;49.516;6.094;2024-01-10T12:28:25;-0.70;99.90
26212;DHT22;13951;49.516;6.094;2024-01-10T12:30:58;-0.70;99.90
26212;DHT22;13951;49.516;6.094;2024-01-10T12:33:31;-0.70;99.90
26212;DHT22;13951;49.516;6.094;2024-01-10T12:36:09;-0.70;99.90
26212;DHT22;13951;49.516;6.094;2024-01-10T12:38:43;-0.60;99.90
26212;DHT22;13951;49.516;6.094;2024-01-10T12:41:18;-0.60;99.90
26212;DHT22;13951;49.516;6.094;2024-01-10T12:43:52;-0.60;99.90
26212;DHT22;13951;49.516;6.094;2024-01-10T12:46:26;-0.60;99.90
26212;DHT22;13951;49.516;6.094;2024-01-10T12:51:35;-0.60;99.90
26212;DHT22;13951;49.516;6.094;2024-01-10T12:54:11;-0.50;99.90
26212;DHT22;13951;49.516;6.094;2024-01-10T12:56:44;-0.50;99.90
26212;DHT22;13951;49.516;6.094;2024-01-10T12:59:18;-0.50;99.90
26212;DHT22;13951;49.516;6.094;2024-01-10T13:01:51;-0.50;99.90
26212;DHT22;13951;49.516;6.094;2024-01-10T13:04:25;-0.40;99.90
26212;DHT22;13951;49.516;6.094;2024-01-10T13:06:59;-0.40;99.90
26212;DHT22;13951;49.516;6.094;2024-01-10T13:09:33;-0.40;99.90
26212;DHT22;13951;49.516;6.094;2024-01-10T13:12:09;-0.40;99.90
26212;DHT22;13951;49.516;6.094;2024-01-10T13:14:43;-0.30;99.90
26212;DHT22;13951;49.516;6.094;2024-01-10T13:17:16;-0.10;99.90
26212;DHT22;13951;49.516;6.094;2024-01-10T13:19:50;0.00;99.90
26212;DHT22;13951;49.516;6.094;2024-01-10T13:22:24;0.20;99.90
26212;DHT22;13951;49.516;6.094;2024-01-10T13:24:57;0.20;99.90
26212;DHT22;13951;49.516;6.094;2024-01-10T13:27:30;0.20;99.90
26212;DHT22;13951;49.516;6.094;2024-01-10T13:30:05;0.20;99.90
26212;DHT22;13951;49.516;6.094;2024-01-10T13:32:40;0.20;99.90
26212;DHT22;13951;49.516;6.094;2024-01-10T13:35:13;0.10;99.90
26212;DHT22;13951;49.516;6.094;2024-01-10T13:37:48;0.20;99.90
26212;DHT22;13951;49.516;6.094;2024-01-10T13:40:21;0.20;99.90
26212;DHT22;13951;49.516;6.094;2024-01-10T13:42:57;0.20;99.90
26212;DHT22;13951;49.516;6.094;2024-01-10T13:45:30;0.20;99.90
26212;DHT22;13951;49.516;6.094;2024-01-10T13:48:03;0.00;99.90
26212;DHT22;13951;49.516;6.094;2024-01-10T13:50:37;0.00;99.90
26212;DHT22;13951;49.516;6.094;2024-01-10T13:53:10;0.00;99.90
26212;DHT22;13951;49.516;6.094;2024-01-10T13:55:44;0.00;99.90
26212;DHT22;13951;49.516;6.094;2024-01-10T13:58:17;-0.10;99.90
26212;DHT22;13951;49.516;6.094;2024-01-10T14:00:51;-0.10;99.90
26212;DHT22;13951;49.516;6.094;2024-01-10T14:03:25;-0.20;99.90
26212;DHT22;13951;49.516;6.094;2024-01-10T14:06:03;-0.20;99.90
26212;DHT22;13951;49.516;6.094;2024-01-10T14:08:37;-0.20;99.90
26212;DHT22;13951;49.516;6.094;2024-01-10T14:11:13;-0.20;99.90
26212;DHT22;13951;49.516;6.094;2024-01-10T14:13:47;-0.20;99.90
26212;DHT22;13951;49.516;6.094;2024-01-10T14:16:20;-0.20;99.90
26212;DHT22;13951;49.516;6.094;2024-01-10T14:18:53;-0.20;99.90
26212;DHT22;13951;49.516;6.094;2024-01-10T14:21:29;-0.10;99.90
26212;DHT22;13951;49.516;6.094;2024-01-10T14:24:04;-0.20;99.90
26212;DHT22;13951;49.516;6.094;2024-01-10T14:26:38;-0.10;99.90
26212;DHT22;13951;49.516;6.094;2024-01-10T14:29:12;-0.10;99.90
26212;DHT22;13951;49.516;6.094;2024-01-10T14:31:45;0.00;99.90
26212;DHT22;13951;49.516;6.094;2024-01-10T14:34:41;0.00;99.90
26212;DHT22;13951;49.516;6.094;2024-01-10T14:37:15;0.10;99.90
26212;DHT22;13951;49.516;6.094;2024-01-10T14:39:48;0.10;99.90
26212;DHT22;13951;49.516;6.094;2024-01-10T14:42:21;0.10;99.90
26212;DHT22;13951;49.516;6.094;2024-01-10T14:44:54;0.10;99.90
26212;DHT22;13951;49.516;6.094;2024-01-10T14:47:27;0.20;99.90
26212;DHT22;13951;49.516;6.094;2024-01-10T14:50:02;0.30;99.90
26212;DHT22;13951;49.516;6.094;2024-01-10T14:52:36;0.30;99.90
26212;DHT22;13951;49.516;6.094;2024-01-10T14:55:09;0.30;99.90
26212;DHT22;13951;49.516;6.094;2024-01-10T14:57:43;0.30;99.90
26212;DHT22;13951;49.516;6.094;2024-01-10T15:00:16;0.30;99.90
26212;DHT22;13951;49.516;6.094;2024-01-10T15:02:50;0.30;99.90
26212;DHT22;13951;49.516;6.094;2024-01-10T15:05:24;0.30;99.90
26212;DHT22;13951;49.516;6.094;2024-01-10T15:07:58;0.30;99.90
26212;DHT22;13951;49.516;6.094;2024-01-10T15:10:32;0.30;99.90
26212;DHT22;13951;49.516;6.094;2024-01-10T15:13:05;0.20;99.90
26212;DHT22;13951;49.516;6.094;2024-01-10T15:15:39;0.20;99.90
26212;DHT22;13951;49.516;6.094;2024-01-10T15:18:12;0.20;99.90
26212;DHT22;13951;49.516;6.094;2024-01-10T15:20:46;0.20;99.90
26212;DHT22;13951;49.516;6.094;2024-01-10T15:23:19;0.10;99.90
26212;DHT22;13951;49.516;6.094;2024-01-10T15:25:52;0.10;99.90
26212;DHT22;13951;49.516;6.094;2024-01-10T15:28:26;0.00;99.90
26212;DHT22;13951;49.516;6.094;2024-01-10T15:30:59;0.00;99.90
26212;DHT22;13951;49.516;6.094;2024-01-10T15:33:34;0.00;99.90
26212;DHT22;13951;49.516;6.094;2024-01-10T15:36:08;0.00;99.90
26212;DHT22;13951;49.516;6.094;2024-01-10T15:38:42;-0.10;99.90
26212;DHT22;13951;49.516;6.094;2024-01-10T15:41:16;-0.10;99.90
26212;DHT22;13951;49.516;6.094;2024-01-10T15:43:49;-0.10;99.90
26212;DHT22;13951;49.516;6.094;2024-01-10T15:46:22;-0.20;99.90
26212;DHT22;13951;49.516;6.094;2024-01-10T15:48:56;-0.20;99.90
26212;DHT22;13951;49.516;6.094;2024-01-10T15:51:29;-0.20;99.90
26212;DHT22;13951;49.516;6.094;2024-01-10T15:54:02;-0.30;99.90
26212;DHT22;13951;49.516;6.094;2024-01-10T15:56:36;-0.30;99.90
26212;DHT22;13951;49.516;6.094;2024-01-10T15:59:12;-0.30;99.90
26212;DHT22;13951;49.516;6.094;2024-01-10T16:01:46;-0.40;99.90
26212;DHT22;13951;49.516;6.094;2024-01-10T16:04:19;-0.40;99.90
26212;DHT22;13951;49.516;6.094;2024-01-10T16:06:52;-0.50;99.90
26212;DHT22;13951;49.516;6.094;2024-01-10T16:09:25;-0.50;99.90
26212;DHT22;13951;49.516;6.094;2024-01-10T16:11:59;-0.50;99.90
26212;DHT22;13951;49.516;6.094;2024-01-10T16:14:35;-0.60;99.90
26212;DHT22;13951;49.516;6.094;2024-01-10T16:17:12;-0.60;99.90
26212;DHT22;13951;49.516;6.094;2024-01-10T16:19:45;-0.60;99.90
26212;DHT22;13951;49.516;6.094;2024-01-10T16:22:18;-0.70;99.90
26212;DHT22;13951;49.516;6.094;2024-01-10T16:24:52;-0.70;99.90
26212;DHT22;13951;49.516;6.094;2024-01-10T16:27:26;-0.70;99.90